sensor_id;sensor_type;location;lat;lon;timestamp;P1;durP1;ratioP1;P2;durP2;ratioP2
34928;SDS011;21133;48.048;7.724;2023-06-22T00:01:50;7.00;;;6.57;;
34928;SDS011;21133;48.048;7.724;2023-06-22T00:04:16;6.67;;;6.27;;
34928;SDS011;21133;48.048;7.724;2023-06-22T00:06:42;7.37;;;5.80;;
34928;SDS011;21133;48.048;7.724;2023-06-22T00:09:08;6.90;;;6.50;;
34928;SDS011;21133;48.048;7.724;2023-06-22T00:11:35;6.47;;;5.77;;
34928;SDS011;21133;48.048;7.724;2023-06-22T00:14:01;5.37;;;4.70;;
34928;SDS011;21133;48.048;7.724;2023-06-22T00:16:27;7.80;;;7.10;;
34928;SDS011;21133;48.048;7.724;2023-06-22T00:18:53;11.80;;;8.30;;
34928;SDS011;21133;48.048;7.724;2023-06-22T00:21:19;6.20;;;5.80;;
34928;SDS011;21133;48.048;7.724;2023-06-22T00:23:46;9.13;;;8.23;;
34928;SDS011;21133;48.048;7.724;2023-06-22T00:26:12;7.73;;;7.10;;
34928;SDS011;21133;48.048;7.724;2023-06-22T00:28:38;8.17;;;7.47;;
34928;SDS011;21133;48.048;7.724;2023-06-22T00:31:04;7.50;;;6.80;;
34928;SDS011;21133;48.048;7.724;2023-06-22T00:33:30;9.13;;;7.87;;
34928;SDS011;21133;48.048;7.724;2023-06-22T00:35:56;10.20;;;8.50;;
34928;SDS011;21133;48.048;7.724;2023-06-22T00:38:22;9.37;;;8.47;;
34928;SDS011;21133;48.048;7.724;2023-06-22T00:40:48;9.53;;;8.57;;
34928;SDS011;21133;48.048;7.724;2023-06-22T00:43:14;10.20;;;8.77;;
34928;SDS011;21133;48.048;7.724;2023-06-22T00:45:40;14.87;;;9.70;;
34928;SDS011;21133;48.048;7.724;2023-06-22T00:48:06;10.70;;;9.57;;
34928;SDS011;21133;48.048;7.724;2023-06-22T00:50:33;9.70;;;8.43;;
34928;SDS011;21133;48.048;7.724;2023-06-22T00:53:00;11.10;;;9.07;;
34928;SDS011;21133;48.048;7.724;2023-06-22T00:55:27;6.70;;;5.17;;
34928;SDS011;21133;48.048;7.724;2023-06-22T00:57:53;11.07;;;9.97;;
34928;SDS011;21133;48.048;7.724;2023-06-22T01:00:20;12.40;;;10.97;;
34928;SDS011;21133;48.048;7.724;2023-06-22T01:02:49;10.57;;;9.80;;
34928;SDS011;21133;48.048;7.724;2023-06-22T01:05:17;9.87;;;9.17;;
34928;SDS011;21133;48.048;7.724;2023-06-22T01:10:21;12.50;;;11.30;;
34928;SDS011;21133;48.048;7.724;2023-06-22T01:12:52;11.10;;;9.80;;
34928;SDS011;21133;48.048;7.724;2023-06-22T01:15:21;11.40;;;10.30;;
34928;SDS011;21133;48.048;7.724;2023-06-22T01:17:49;14.20;;;10.00;;
34928;SDS011;21133;48.048;7.724;2023-06-22T01:20:15;10.53;;;9.63;;
34928;SDS011;21133;48.048;7.724;2023-06-22T01:25:21;13.70;;;10.20;;
34928;SDS011;21133;48.048;7.724;2023-06-22T01:30:20;5.90;;;5.53;;
34928;SDS011;21133;48.048;7.724;2023-06-22T01:32:47;19.40;;;10.47;;
34928;SDS011;21133;48.048;7.724;2023-06-22T01:35:13;11.50;;;10.03;;
34928;SDS011;21133;48.048;7.724;2023-06-22T01:37:40;14.90;;;10.40;;
34928;SDS011;21133;48.048;7.724;2023-06-22T01:40:06;10.47;;;9.67;;
34928;SDS011;21133;48.048;7.724;2023-06-22T01:42:34;8.20;;;7.33;;
34928;SDS011;21133;48.048;7.724;2023-06-22T01:45:00;10.40;;;9.50;;
34928;SDS011;21133;48.048;7.724;2023-06-22T01:47:26;15.03;;;10.97;;
34928;SDS011;21133;48.048;7.724;2023-06-22T01:49:53;10.80;;;9.23;;
34928;SDS011;21133;48.048;7.724;2023-06-22T01:52:20;17.27;;;11.30;;
34928;SDS011;21133;48.048;7.724;2023-06-22T01:54:46;8.20;;;7.50;;
34928;SDS011;21133;48.048;7.724;2023-06-22T01:57:13;8.43;;;7.73;;
34928;SDS011;21133;48.048;7.724;2023-06-22T01:59:42;11.27;;;6.67;;
34928;SDS011;21133;48.048;7.724;2023-06-22T02:02:11;15.57;;;11.67;;
34928;SDS011;21133;48.048;7.724;2023-06-22T02:04:41;15.43;;;11.37;;
34928;SDS011;21133;48.048;7.724;2023-06-22T02:07:10;17.93;;;11.10;;
34928;SDS011;21133;48.048;7.724;2023-06-22T02:09:38;14.07;;;10.20;;
34928;SDS011;21133;48.048;7.724;2023-06-22T02:12:04;15.10;;;9.47;;
34928;SDS011;21133;48.048;7.724;2023-06-22T02:14:32;12.73;;;6.40;;
34928;SDS011;21133;48.048;7.724;2023-06-22T02:16:58;9.53;;;8.40;;
34928;SDS011;21133;48.048;7.724;2023-06-22T02:19:25;13.53;;;11.10;;
34928;SDS011;21133;48.048;7.724;2023-06-22T02:21:52;12.50;;;11.30;;
34928;SDS011;21133;48.048;7.724;2023-06-22T02:24:18;19.30;;;11.10;;
34928;SDS011;21133;48.048;7.724;2023-06-22T02:26:44;16.63;;;10.40;;
34928;SDS011;21133;48.048;7.724;2023-06-22T02:29:11;22.03;;;10.63;;
34928;SDS011;21133;48.048;7.724;2023-06-22T02:31:37;12.53;;;10.47;;
34928;SDS011;21133;48.048;7.724;2023-06-22T02:34:03;11.80;;;9.97;;
34928;SDS011;21133;48.048;7.724;2023-06-22T02:36:28;10.30;;;9.23;;
34928;SDS011;21133;48.048;7.724;2023-06-22T02:38:55;13.43;;;10.13;;
34928;SDS011;21133;48.048;7.724;2023-06-22T02:41:23;11.50;;;10.30;;
34928;SDS011;21133;48.048;7.724;2023-06-22T02:43:49;9.67;;;8.60;;
34928;SDS011;21133;48.048;7.724;2023-06-22T02:46:15;14.13;;;9.63;;
34928;SDS011;21133;48.048;7.724;2023-06-22T02:48:41;13.90;;;10.37;;
34928;SDS011;21133;48.048;7.724;2023-06-22T02:51:07;11.47;;;10.37;;
34928;SDS011;21133;48.048;7.724;2023-06-22T02:53:33;11.23;;;9.77;;
34928;SDS011;21133;48.048;7.724;2023-06-22T02:56:01;9.90;;;8.70;;
34928;SDS011;21133;48.048;7.724;2023-06-22T02:58:30;11.63;;;9.67;;
34928;SDS011;21133;48.048;7.724;2023-06-22T03:00:56;10.93;;;9.87;;
34928;SDS011;21133;48.048;7.724;2023-06-22T03:03:22;11.23;;;10.10;;
34928;SDS011;21133;48.048;7.724;2023-06-22T03:05:48;12.40;;;10.23;;
34928;SDS011;21133;48.048;7.724;2023-06-22T03:08:14;16.00;;;10.37;;
34928;SDS011;21133;48.048;7.724;2023-06-22T03:10:40;20.63;;;10.13;;
34928;SDS011;21133;48.048;7.724;2023-06-22T03:13:05;15.17;;;10.57;;
34928;SDS011;21133;48.048;7.724;2023-06-22T03:15:31;12.07;;;10.97;;
34928;SDS011;21133;48.048;7.724;2023-06-22T03:21:01;18.83;;;10.70;;
34928;SDS011;21133;48.048;7.724;2023-06-22T03:23:27;11.90;;;10.70;;
34928;SDS011;21133;48.048;7.724;2023-06-22T03:25:53;12.10;;;9.57;;
34928;SDS011;21133;48.048;7.724;2023-06-22T03:28:20;17.40;;;9.53;;
34928;SDS011;21133;48.048;7.724;2023-06-22T03:30:46;11.23;;;10.13;;
34928;SDS011;21133;48.048;7.724;2023-06-22T03:33:12;10.47;;;9.43;;
34928;SDS011;21133;48.048;7.724;2023-06-22T03:35:38;11.33;;;10.27;;
34928;SDS011;21133;48.048;7.724;2023-06-22T03:38:04;16.03;;;9.90;;
34928;SDS011;21133;48.048;7.724;2023-06-22T03:40:30;16.53;;;10.50;;
34928;SDS011;21133;48.048;7.724;2023-06-22T03:42:56;10.00;;;8.50;;
34928;SDS011;21133;48.048;7.724;2023-06-22T03:45:22;12.43;;;9.23;;
34928;SDS011;21133;48.048;7.724;2023-06-22T03:47:48;11.43;;;9.87;;
34928;SDS011;21133;48.048;7.724;2023-06-22T03:50:14;12.30;;;9.70;;
34928;SDS011;21133;48.048;7.724;2023-06-22T03:52:40;13.60;;;10.30;;
34928;SDS011;21133;48.048;7.724;2023-06-22T03:55:06;13.23;;;10.97;;
34928;SDS011;21133;48.048;7.724;2023-06-22T03:57:33;11.30;;;10.20;;
34928;SDS011;21133;48.048;7.724;2023-06-22T03:59:59;14.90;;;10.37;;
34928;SDS011;21133;48.048;7.724;2023-06-22T04:02:25;12.63;;;10.33;;
34928;SDS011;21133;48.048;7.724;2023-06-22T04:04:51;22.47;;;10.77;;
34928;SDS011;21133;48.048;7.724;2023-06-22T04:07:17;11.50;;;10.10;;
34928;SDS011;21133;48.048;7.724;2023-06-22T04:09:43;12.27;;;10.60;;
34928;SDS011;21133;48.048;7.724;2023-06-22T04:12:09;12.30;;;10.70;;
34928;SDS011;21133;48.048;7.724;2023-06-22T04:14:35;16.93;;;10.93;;
34928;SDS011;21133;48.048;7.724;2023-06-22T04:17:01;12.83;;;10.40;;
34928;SDS011;21133;48.048;7.724;2023-06-22T04:19:27;12.20;;;10.97;;
34928;SDS011;21133;48.048;7.724;2023-06-22T04:21:53;12.97;;;11.57;;
34928;SDS011;21133;48.048;7.724;2023-06-22T04:24:19;11.60;;;10.60;;
34928;SDS011;21133;48.048;7.724;2023-06-22T04:26:45;12.33;;;10.67;;
34928;SDS011;21133;48.048;7.724;2023-06-22T04:29:12;16.87;;;10.03;;
34928;SDS011;21133;48.048;7.724;2023-06-22T04:31:38;11.40;;;9.30;;
34928;SDS011;21133;48.048;7.724;2023-06-22T04:34:04;15.03;;;9.60;;
34928;SDS011;21133;48.048;7.724;2023-06-22T04:36:36;25.37;;;10.77;;
34928;SDS011;21133;48.048;7.724;2023-06-22T04:39:10;10.73;;;9.80;;
34928;SDS011;21133;48.048;7.724;2023-06-22T04:41:39;15.80;;;11.30;;
34928;SDS011;21133;48.048;7.724;2023-06-22T04:44:09;13.63;;;10.07;;
34928;SDS011;21133;48.048;7.724;2023-06-22T04:46:36;15.00;;;11.10;;
34928;SDS011;21133;48.048;7.724;2023-06-22T04:49:03;14.77;;;10.20;;
34928;SDS011;21133;48.048;7.724;2023-06-22T04:51:31;20.10;;;11.47;;
34928;SDS011;21133;48.048;7.724;2023-06-22T04:53:57;14.23;;;11.10;;
34928;SDS011;21133;48.048;7.724;2023-06-22T04:56:26;17.83;;;12.63;;
34928;SDS011;21133;48.048;7.724;2023-06-22T04:58:53;19.63;;;10.73;;
34928;SDS011;21133;48.048;7.724;2023-06-22T05:01:21;11.57;;;10.47;;
34928;SDS011;21133;48.048;7.724;2023-06-22T05:03:47;18.00;;;9.87;;
34928;SDS011;21133;48.048;7.724;2023-06-22T05:06:13;19.70;;;10.83;;
34928;SDS011;21133;48.048;7.724;2023-06-22T05:08:40;19.47;;;9.47;;
34928;SDS011;21133;48.048;7.724;2023-06-22T05:11:06;19.03;;;10.50;;
34928;SDS011;21133;48.048;7.724;2023-06-22T05:13:32;11.90;;;9.37;;
34928;SDS011;21133;48.048;7.724;2023-06-22T05:15:58;15.53;;;8.90;;
34928;SDS011;21133;48.048;7.724;2023-06-22T05:18:30;12.20;;;9.90;;
34928;SDS011;21133;48.048;7.724;2023-06-22T05:20:57;24.97;;;9.93;;
34928;SDS011;21133;48.048;7.724;2023-06-22T05:23:24;21.73;;;9.90;;
34928;SDS011;21133;48.048;7.724;2023-06-22T05:25:50;13.47;;;9.70;;
34928;SDS011;21133;48.048;7.724;2023-06-22T05:28:17;17.57;;;9.87;;
34928;SDS011;21133;48.048;7.724;2023-06-22T05:30:47;12.30;;;9.53;;
34928;SDS011;21133;48.048;7.724;2023-06-22T05:33:13;13.23;;;10.53;;
34928;SDS011;21133;48.048;7.724;2023-06-22T05:35:39;15.43;;;11.00;;
34928;SDS011;21133;48.048;7.724;2023-06-22T05:38:06;14.17;;;9.60;;
34928;SDS011;21133;48.048;7.724;2023-06-22T05:40:32;16.53;;;10.20;;
34928;SDS011;21133;48.048;7.724;2023-06-22T05:42:58;22.20;;;11.27;;
34928;SDS011;21133;48.048;7.724;2023-06-22T05:45:26;22.17;;;8.83;;
34928;SDS011;21133;48.048;7.724;2023-06-22T05:47:52;13.70;;;10.20;;
34928;SDS011;21133;48.048;7.724;2023-06-22T05:50:18;16.47;;;9.33;;
34928;SDS011;21133;48.048;7.724;2023-06-22T05:52:44;16.87;;;9.87;;
34928;SDS011;21133;48.048;7.724;2023-06-22T05:55:10;13.37;;;10.40;;
34928;SDS011;21133;48.048;7.724;2023-06-22T05:57:36;11.90;;;9.00;;
34928;SDS011;21133;48.048;7.724;2023-06-22T06:00:02;15.00;;;11.33;;
34928;SDS011;21133;48.048;7.724;2023-06-22T06:02:31;22.77;;;10.57;;
34928;SDS011;21133;48.048;7.724;2023-06-22T06:04:58;30.53;;;12.87;;
34928;SDS011;21133;48.048;7.724;2023-06-22T06:07:24;24.40;;;11.33;;
34928;SDS011;21133;48.048;7.724;2023-06-22T06:09:51;23.13;;;11.57;;
34928;SDS011;21133;48.048;7.724;2023-06-22T06:12:17;15.20;;;11.13;;
34928;SDS011;21133;48.048;7.724;2023-06-22T06:14:43;12.83;;;11.47;;
34928;SDS011;21133;48.048;7.724;2023-06-22T06:17:09;18.33;;;11.13;;
34928;SDS011;21133;48.048;7.724;2023-06-22T06:19:35;13.93;;;12.10;;
34928;SDS011;21133;48.048;7.724;2023-06-22T06:22:01;17.43;;;10.40;;
34928;SDS011;21133;48.048;7.724;2023-06-22T06:24:27;31.33;;;12.37;;
34928;SDS011;21133;48.048;7.724;2023-06-22T06:26:53;16.83;;;11.73;;
34928;SDS011;21133;48.048;7.724;2023-06-22T06:29:20;17.30;;;12.00;;
34928;SDS011;21133;48.048;7.724;2023-06-22T06:31:46;13.53;;;12.13;;
34928;SDS011;21133;48.048;7.724;2023-06-22T06:34:13;14.23;;;11.93;;
34928;SDS011;21133;48.048;7.724;2023-06-22T06:36:39;12.67;;;11.47;;
34928;SDS011;21133;48.048;7.724;2023-06-22T06:39:04;13.27;;;10.47;;
34928;SDS011;21133;48.048;7.724;2023-06-22T06:41:30;13.87;;;12.37;;
34928;SDS011;21133;48.048;7.724;2023-06-22T06:43:56;21.57;;;12.60;;
34928;SDS011;21133;48.048;7.724;2023-06-22T06:46:22;17.50;;;12.00;;
34928;SDS011;21133;48.048;7.724;2023-06-22T06:48:48;15.20;;;13.17;;
34928;SDS011;21133;48.048;7.724;2023-06-22T06:51:14;15.80;;;12.37;;
34928;SDS011;21133;48.048;7.724;2023-06-22T06:53:40;14.87;;;12.87;;
34928;SDS011;21133;48.048;7.724;2023-06-22T06:56:06;25.10;;;13.63;;
34928;SDS011;21133;48.048;7.724;2023-06-22T06:58:35;27.13;;;14.40;;
34928;SDS011;21133;48.048;7.724;2023-06-22T07:01:01;15.67;;;13.97;;
34928;SDS011;21133;48.048;7.724;2023-06-22T07:03:28;17.00;;;13.33;;
34928;SDS011;21133;48.048;7.724;2023-06-22T07:05:54;27.23;;;14.27;;
34928;SDS011;21133;48.048;7.724;2023-06-22T07:08:20;16.60;;;13.23;;
34928;SDS011;21133;48.048;7.724;2023-06-22T07:10:46;18.80;;;13.73;;
34928;SDS011;21133;48.048;7.724;2023-06-22T07:13:12;14.17;;;12.50;;
34928;SDS011;21133;48.048;7.724;2023-06-22T07:15:38;12.17;;;9.50;;
34928;SDS011;21133;48.048;7.724;2023-06-22T07:18:04;16.43;;;13.67;;
34928;SDS011;21133;48.048;7.724;2023-06-22T07:20:30;18.37;;;15.23;;
34928;SDS011;21133;48.048;7.724;2023-06-22T07:22:56;23.27;;;15.97;;
34928;SDS011;21133;48.048;7.724;2023-06-22T07:25:23;16.77;;;13.73;;
34928;SDS011;21133;48.048;7.724;2023-06-22T07:28:02;27.17;;;16.00;;
34928;SDS011;21133;48.048;7.724;2023-06-22T07:30:28;27.83;;;16.77;;
34928;SDS011;21133;48.048;7.724;2023-06-22T07:32:54;31.40;;;15.43;;
34928;SDS011;21133;48.048;7.724;2023-06-22T07:35:21;17.97;;;15.47;;
34928;SDS011;21133;48.048;7.724;2023-06-22T07:37:47;28.33;;;14.57;;
34928;SDS011;21133;48.048;7.724;2023-06-22T07:40:13;20.83;;;14.37;;
34928;SDS011;21133;48.048;7.724;2023-06-22T07:42:38;15.93;;;13.90;;
34928;SDS011;21133;48.048;7.724;2023-06-22T07:45:05;23.80;;;14.23;;
34928;SDS011;21133;48.048;7.724;2023-06-22T07:47:33;15.53;;;13.90;;
34928;SDS011;21133;48.048;7.724;2023-06-22T07:50:00;17.90;;;14.90;;
34928;SDS011;21133;48.048;7.724;2023-06-22T07:52:27;15.23;;;13.67;;
34928;SDS011;21133;48.048;7.724;2023-06-22T07:54:53;17.17;;;15.47;;
34928;SDS011;21133;48.048;7.724;2023-06-22T07:57:19;16.77;;;15.17;;
34928;SDS011;21133;48.048;7.724;2023-06-22T07:59:45;19.93;;;15.13;;
34928;SDS011;21133;48.048;7.724;2023-06-22T08:02:11;19.43;;;15.93;;
34928;SDS011;21133;48.048;7.724;2023-06-22T08:04:37;14.80;;;12.97;;
34928;SDS011;21133;48.048;7.724;2023-06-22T08:07:03;17.17;;;14.60;;
34928;SDS011;21133;48.048;7.724;2023-06-22T08:09:30;15.27;;;13.63;;
34928;SDS011;21133;48.048;7.724;2023-06-22T08:11:56;14.97;;;12.07;;
34928;SDS011;21133;48.048;7.724;2023-06-22T08:14:23;20.23;;;13.30;;
34928;SDS011;21133;48.048;7.724;2023-06-22T08:16:49;15.20;;;12.70;;
34928;SDS011;21133;48.048;7.724;2023-06-22T08:19:15;13.37;;;11.80;;
34928;SDS011;21133;48.048;7.724;2023-06-22T08:21:42;26.20;;;12.00;;
34928;SDS011;21133;48.048;7.724;2023-06-22T08:24:08;19.03;;;11.47;;
34928;SDS011;21133;48.048;7.724;2023-06-22T08:26:34;21.13;;;12.50;;
34928;SDS011;21133;48.048;7.724;2023-06-22T08:29:03;15.17;;;10.77;;
34928;SDS011;21133;48.048;7.724;2023-06-22T08:31:29;18.30;;;13.50;;
34928;SDS011;21133;48.048;7.724;2023-06-22T08:33:55;18.37;;;13.60;;
34928;SDS011;21133;48.048;7.724;2023-06-22T08:36:21;20.23;;;12.30;;
34928;SDS011;21133;48.048;7.724;2023-06-22T08:38:47;13.90;;;11.43;;
34928;SDS011;21133;48.048;7.724;2023-06-22T08:41:16;17.77;;;12.40;;
34928;SDS011;21133;48.048;7.724;2023-06-22T08:43:42;18.83;;;13.50;;
34928;SDS011;21133;48.048;7.724;2023-06-22T08:46:09;13.13;;;7.90;;
34928;SDS011;21133;48.048;7.724;2023-06-22T08:51:38;14.03;;;12.60;;
34928;SDS011;21133;48.048;7.724;2023-06-22T08:54:04;17.27;;;11.80;;
34928;SDS011;21133;48.048;7.724;2023-06-22T08:56:30;19.07;;;10.90;;
34928;SDS011;21133;48.048;7.724;2023-06-22T08:58:56;8.80;;;7.93;;
34928;SDS011;21133;48.048;7.724;2023-06-22T09:01:22;16.40;;;10.73;;
34928;SDS011;21133;48.048;7.724;2023-06-22T09:03:48;12.73;;;8.80;;
34928;SDS011;21133;48.048;7.724;2023-06-22T09:06:19;14.17;;;9.27;;
34928;SDS011;21133;48.048;7.724;2023-06-22T09:08:46;17.50;;;11.17;;
34928;SDS011;21133;48.048;7.724;2023-06-22T09:11:12;9.30;;;8.10;;
34928;SDS011;21133;48.048;7.724;2023-06-22T09:13:38;8.20;;;7.60;;
34928;SDS011;21133;48.048;7.724;2023-06-22T09:16:04;20.63;;;9.53;;
34928;SDS011;21133;48.048;7.724;2023-06-22T09:18:30;14.60;;;9.30;;
34928;SDS011;21133;48.048;7.724;2023-06-22T09:20:56;11.70;;;9.67;;
34928;SDS011;21133;48.048;7.724;2023-06-22T09:23:22;17.93;;;8.60;;
34928;SDS011;21133;48.048;7.724;2023-06-22T09:25:48;12.93;;;8.60;;
34928;SDS011;21133;48.048;7.724;2023-06-22T09:31:17;9.40;;;6.90;;
34928;SDS011;21133;48.048;7.724;2023-06-22T09:33:50;16.53;;;8.20;;
34928;SDS011;21133;48.048;7.724;2023-06-22T09:36:16;10.33;;;6.73;;
34928;SDS011;21133;48.048;7.724;2023-06-22T09:38:42;6.90;;;6.27;;
34928;SDS011;21133;48.048;7.724;2023-06-22T09:41:08;7.90;;;7.20;;
34928;SDS011;21133;48.048;7.724;2023-06-22T09:43:34;7.57;;;6.85;;
34928;SDS011;21133;48.048;7.724;2023-06-22T09:46:01;7.60;;;6.90;;
34928;SDS011;21133;48.048;7.724;2023-06-22T09:51:30;18.43;;;8.60;;
34928;SDS011;21133;48.048;7.724;2023-06-22T09:53:56;10.67;;;8.10;;
34928;SDS011;21133;48.048;7.724;2023-06-22T09:56:23;9.17;;;7.67;;
34928;SDS011;21133;48.048;7.724;2023-06-22T10:01:53;8.63;;;7.77;;
34928;SDS011;21133;48.048;7.724;2023-06-22T10:04:19;11.77;;;6.30;;
34928;SDS011;21133;48.048;7.724;2023-06-22T10:06:45;17.87;;;7.70;;
34928;SDS011;21133;48.048;7.724;2023-06-22T10:09:11;10.00;;;7.00;;
34928;SDS011;21133;48.048;7.724;2023-06-22T10:11:37;8.40;;;6.90;;
34928;SDS011;21133;48.048;7.724;2023-06-22T10:14:03;6.90;;;6.30;;
34928;SDS011;21133;48.048;7.724;2023-06-22T10:16:32;7.40;;;6.53;;
34928;SDS011;21133;48.048;7.724;2023-06-22T10:19:00;7.80;;;7.00;;
34928;SDS011;21133;48.048;7.724;2023-06-22T10:21:26;9.27;;;5.87;;
34928;SDS011;21133;48.048;7.724;2023-06-22T10:23:53;9.47;;;7.80;;
34928;SDS011;21133;48.048;7.724;2023-06-22T10:26:20;10.37;;;7.30;;
34928;SDS011;21133;48.048;7.724;2023-06-22T10:28:46;10.10;;;6.70;;
34928;SDS011;21133;48.048;7.724;2023-06-22T10:31:12;12.13;;;6.47;;
34928;SDS011;21133;48.048;7.724;2023-06-22T10:33:38;9.00;;;6.40;;
34928;SDS011;21133;48.048;7.724;2023-06-22T10:36:06;10.87;;;6.23;;
34928;SDS011;21133;48.048;7.724;2023-06-22T10:38:32;17.50;;;7.93;;
34928;SDS011;21133;48.048;7.724;2023-06-22T10:40:58;12.13;;;6.63;;
34928;SDS011;21133;48.048;7.724;2023-06-22T10:43:24;7.97;;;6.93;;
34928;SDS011;21133;48.048;7.724;2023-06-22T10:45:50;13.70;;;6.37;;
34928;SDS011;21133;48.048;7.724;2023-06-22T10:48:16;9.97;;;7.13;;
34928;SDS011;21133;48.048;7.724;2023-06-22T10:50:42;11.10;;;7.80;;
34928;SDS011;21133;48.048;7.724;2023-06-22T10:53:08;12.43;;;8.10;;
34928;SDS011;21133;48.048;7.724;2023-06-22T10:55:34;11.63;;;7.93;;
34928;SDS011;21133;48.048;7.724;2023-06-22T10:58:00;25.53;;;9.67;;
34928;SDS011;21133;48.048;7.724;2023-06-22T11:00:26;12.10;;;7.87;;
34928;SDS011;21133;48.048;7.724;2023-06-22T11:02:52;13.17;;;8.83;;
34928;SDS011;21133;48.048;7.724;2023-06-22T11:05:18;12.53;;;9.17;;
34928;SDS011;21133;48.048;7.724;2023-06-22T11:07:43;9.83;;;7.00;;
34928;SDS011;21133;48.048;7.724;2023-06-22T11:10:10;11.40;;;7.60;;
34928;SDS011;21133;48.048;7.724;2023-06-22T11:12:36;10.10;;;8.07;;
34928;SDS011;21133;48.048;7.724;2023-06-22T11:15:02;15.43;;;7.20;;
34928;SDS011;21133;48.048;7.724;2023-06-22T11:17:28;11.57;;;6.63;;
34928;SDS011;21133;48.048;7.724;2023-06-22T11:19:54;14.37;;;7.30;;
34928;SDS011;21133;48.048;7.724;2023-06-22T11:22:20;7.93;;;6.07;;
34928;SDS011;21133;48.048;7.724;2023-06-22T11:24:46;13.00;;;6.70;;
34928;SDS011;21133;48.048;7.724;2023-06-22T11:27:12;26.33;;;8.40;;
34928;SDS011;21133;48.048;7.724;2023-06-22T11:29:38;13.13;;;9.33;;
34928;SDS011;21133;48.048;7.724;2023-06-22T11:32:05;23.70;;;9.60;;
34928;SDS011;21133;48.048;7.724;2023-06-22T11:34:32;14.27;;;8.07;;
34928;SDS011;21133;48.048;7.724;2023-06-22T11:36:57;11.17;;;9.20;;
34928;SDS011;21133;48.048;7.724;2023-06-22T11:39:23;13.20;;;7.47;;
34928;SDS011;21133;48.048;7.724;2023-06-22T11:41:49;10.97;;;8.43;;
34928;SDS011;21133;48.048;7.724;2023-06-22T11:44:15;18.53;;;8.10;;
34928;SDS011;21133;48.048;7.724;2023-06-22T11:46:41;16.00;;;9.00;;
34928;SDS011;21133;48.048;7.724;2023-06-22T11:49:07;8.47;;;7.27;;
34928;SDS011;21133;48.048;7.724;2023-06-22T11:51:33;22.37;;;8.87;;
34928;SDS011;21133;48.048;7.724;2023-06-22T11:53:59;15.10;;;7.50;;
34928;SDS011;21133;48.048;7.724;2023-06-22T11:56:26;11.90;;;8.10;;
34928;SDS011;21133;48.048;7.724;2023-06-22T12:01:56;7.13;;;6.27;;
34928;SDS011;21133;48.048;7.724;2023-06-22T12:04:23;9.07;;;7.97;;
34928;SDS011;21133;48.048;7.724;2023-06-22T12:06:49;10.00;;;8.93;;
34928;SDS011;21133;48.048;7.724;2023-06-22T12:09:15;15.80;;;8.53;;
34928;SDS011;21133;48.048;7.724;2023-06-22T12:11:41;16.33;;;8.87;;
34928;SDS011;21133;48.048;7.724;2023-06-22T12:14:07;15.53;;;8.17;;
34928;SDS011;21133;48.048;7.724;2023-06-22T12:16:33;10.87;;;9.50;;
34928;SDS011;21133;48.048;7.724;2023-06-22T12:18:59;12.93;;;7.83;;
34928;SDS011;21133;48.048;7.724;2023-06-22T12:21:25;10.57;;;6.90;;
34928;SDS011;21133;48.048;7.724;2023-06-22T12:23:51;16.43;;;9.13;;
34928;SDS011;21133;48.048;7.724;2023-06-22T12:26:17;14.10;;;8.33;;
34928;SDS011;21133;48.048;7.724;2023-06-22T12:28:43;7.67;;;6.53;;
34928;SDS011;21133;48.048;7.724;2023-06-22T12:31:09;14.43;;;8.57;;
34928;SDS011;21133;48.048;7.724;2023-06-22T12:33:35;13.30;;;6.83;;
34928;SDS011;21133;48.048;7.724;2023-06-22T12:36:01;14.43;;;7.40;;
34928;SDS011;21133;48.048;7.724;2023-06-22T12:38:28;14.23;;;6.00;;
34928;SDS011;21133;48.048;7.724;2023-06-22T12:40:54;14.20;;;6.60;;
34928;SDS011;21133;48.048;7.724;2023-06-22T12:43:20;10.83;;;6.07;;
34928;SDS011;21133;48.048;7.724;2023-06-22T12:45:46;6.23;;;5.53;;
34928;SDS011;21133;48.048;7.724;2023-06-22T12:48:12;16.70;;;5.90;;
34928;SDS011;21133;48.048;7.724;2023-06-22T12:50:38;12.43;;;6.20;;
34928;SDS011;21133;48.048;7.724;2023-06-22T12:53:04;24.00;;;5.90;;
34928;SDS011;21133;48.048;7.724;2023-06-22T12:55:31;12.83;;;6.00;;
34928;SDS011;21133;48.048;7.724;2023-06-22T12:57:57;15.70;;;5.43;;
34928;SDS011;21133;48.048;7.724;2023-06-22T13:00:23;12.40;;;6.43;;
34928;SDS011;21133;48.048;7.724;2023-06-22T13:02:49;7.70;;;6.13;;
34928;SDS011;21133;48.048;7.724;2023-06-22T13:05:15;12.67;;;6.97;;
34928;SDS011;21133;48.048;7.724;2023-06-22T13:07:41;9.23;;;5.87;;
34928;SDS011;21133;48.048;7.724;2023-06-22T13:10:07;11.37;;;5.70;;
34928;SDS011;21133;48.048;7.724;2023-06-22T13:12:33;6.03;;;5.43;;
34928;SDS011;21133;48.048;7.724;2023-06-22T13:14:59;13.23;;;5.53;;
34928;SDS011;21133;48.048;7.724;2023-06-22T13:17:25;9.03;;;6.60;;
34928;SDS011;21133;48.048;7.724;2023-06-22T13:19:51;17.67;;;6.60;;
34928;SDS011;21133;48.048;7.724;2023-06-22T13:22:33;17.07;;;7.00;;
34928;SDS011;21133;48.048;7.724;2023-06-22T13:25:05;10.17;;;6.40;;
34928;SDS011;21133;48.048;7.724;2023-06-22T13:27:31;18.13;;;6.20;;
34928;SDS011;21133;48.048;7.724;2023-06-22T13:29:57;15.73;;;5.90;;
34928;SDS011;21133;48.048;7.724;2023-06-22T13:32:23;15.30;;;5.67;;
34928;SDS011;21133;48.048;7.724;2023-06-22T13:34:49;15.00;;;5.90;;
34928;SDS011;21133;48.048;7.724;2023-06-22T13:37:15;8.47;;;4.77;;
34928;SDS011;21133;48.048;7.724;2023-06-22T13:39:41;15.73;;;5.77;;
34928;SDS011;21133;48.048;7.724;2023-06-22T13:42:07;20.47;;;6.60;;
34928;SDS011;21133;48.048;7.724;2023-06-22T13:44:33;7.13;;;4.80;;
34928;SDS011;21133;48.048;7.724;2023-06-22T13:47:01;18.40;;;5.83;;
34928;SDS011;21133;48.048;7.724;2023-06-22T13:49:27;11.27;;;5.20;;
34928;SDS011;21133;48.048;7.724;2023-06-22T13:51:53;11.53;;;5.80;;
34928;SDS011;21133;48.048;7.724;2023-06-22T13:54:19;20.90;;;6.80;;
34928;SDS011;21133;48.048;7.724;2023-06-22T13:56:46;14.97;;;5.30;;
34928;SDS011;21133;48.048;7.724;2023-06-22T13:59:12;17.90;;;5.80;;
34928;SDS011;21133;48.048;7.724;2023-06-22T14:01:38;12.80;;;5.70;;
34928;SDS011;21133;48.048;7.724;2023-06-22T14:04:06;12.50;;;5.80;;
34928;SDS011;21133;48.048;7.724;2023-06-22T14:06:32;19.77;;;6.57;;
34928;SDS011;21133;48.048;7.724;2023-06-22T14:08:58;14.47;;;6.30;;
34928;SDS011;21133;48.048;7.724;2023-06-22T14:11:24;14.03;;;5.97;;
34928;SDS011;21133;48.048;7.724;2023-06-22T14:13:50;15.50;;;6.10;;
34928;SDS011;21133;48.048;7.724;2023-06-22T14:16:16;15.33;;;5.63;;
34928;SDS011;21133;48.048;7.724;2023-06-22T14:18:42;18.83;;;6.00;;
34928;SDS011;21133;48.048;7.724;2023-06-22T14:21:08;9.20;;;5.30;;
34928;SDS011;21133;48.048;7.724;2023-06-22T14:23:34;15.30;;;4.57;;
34928;SDS011;21133;48.048;7.724;2023-06-22T14:26:00;8.90;;;5.40;;
34928;SDS011;21133;48.048;7.724;2023-06-22T14:28:26;16.00;;;9.90;;
34928;SDS011;21133;48.048;7.724;2023-06-22T14:30:52;10.33;;;5.10;;
34928;SDS011;21133;48.048;7.724;2023-06-22T14:33:18;15.07;;;5.57;;
34928;SDS011;21133;48.048;7.724;2023-06-22T14:35:44;9.60;;;4.83;;
34928;SDS011;21133;48.048;7.724;2023-06-22T14:38:10;16.13;;;4.57;;
34928;SDS011;21133;48.048;7.724;2023-06-22T14:40:36;18.70;;;5.30;;
34928;SDS011;21133;48.048;7.724;2023-06-22T14:43:02;11.90;;;6.00;;
34928;SDS011;21133;48.048;7.724;2023-06-22T14:45:28;9.33;;;5.30;;
34928;SDS011;21133;48.048;7.724;2023-06-22T14:47:54;15.10;;;5.80;;
34928;SDS011;21133;48.048;7.724;2023-06-22T14:50:20;13.20;;;5.20;;
34928;SDS011;21133;48.048;7.724;2023-06-22T14:52:46;18.27;;;5.47;;